MSC Federica — HPQE — position and weather

sailwx.info

Track history (hours):
 
Tides and Currents Weather Stations Pressure Air Temp Water Temp Dewpoint Dewpoint Depression Visibility Wind Speed Wind Dir Waves Ship Positions

MSC Federica

Last reported at 2015-Jan-16 11:18 UTC. Time now 2015-Jan-27 14:28 UTC.
Position S 32°41' W 071°42'.
Warning: this ship's position is 11 days out of date.

Length 294 m; draft 9.7 m.

Type: Ship (hazmat cat B). MMSI: 357363000.

Date/timePositionNaut miles runAvg speedWind from/ knotsBaromVisibWave heightAir tempDewpointWater temp
2015-Jan-16 11:18S 32°41' W 071°42'1418.5
2015-Jan-16 10:33S 32°55' W 071°38'7 0.7
2015-Jan-15 23:25S 33°02' W 071°38'0 0.0
2015-Jan-15 22:28S 33°02' W 071°38'0 0.0
2015-Jan-15 21:31S 33°02' W 071°38'1 0.6
2015-Jan-15 20:33S 33°02' W 071°37'9 9.4
2015-Jan-15 19:33S 32°53' W 071°42'1 0.9
2015-Jan-15 18:33S 32°54' W 071°42'1 1.4
2015-Jan-15 17:33S 32°56' W 071°43'4 3.7
2015-Jan-15 16:33S 32°59' W 071°41'1111.0
2015-Jan-15 15:33S 33°07' W 071°51'  
Track history (hours):
 
Tides and Currents Weather Stations Pressure Air Temp Water Temp Dewpoint Dewpoint Depression Visibility Wind Speed Wind Dir Waves Ship Positions

MSC Federica

Last reported at 2015-Jan-16 11:18 UTC. Time now 2015-Jan-27 14:28 UTC.
Position S 32°41' W 071°42'.
Warning: this ship's position is 11 days out of date.

Length 294 m; draft 9.7 m.

Type: Ship (hazmat cat B). MMSI: 357363000.

Date/timePositionNaut miles runAvg speedWind from/ knotsBaromVisibWave heightAir tempDewpointWater temp
2015-Jan-16 11:18S 32°41' W 071°42'1418.5
2015-Jan-16 10:33S 32°55' W 071°38'7 0.7
2015-Jan-15 23:25S 33°02' W 071°38'0 0.0
2015-Jan-15 22:28S 33°02' W 071°38'0 0.0
2015-Jan-15 21:31S 33°02' W 071°38'1 0.6
2015-Jan-15 20:33S 33°02' W 071°37'9 9.4
2015-Jan-15 19:33S 32°53' W 071°42'1 0.9
2015-Jan-15 18:33S 32°54' W 071°42'1 1.4
2015-Jan-15 17:33S 32°56' W 071°43'4 3.7
2015-Jan-15 16:33S 32°59' W 071°41'1111.0
2015-Jan-15 15:33S 33°07' W 071°51'  

Dump ship's entire track history